Terminal Aerodrome Forecast
Issued by NWS Cleveland, OH

Home | Current Version | Previous Version | Text Only | Print | Product List | Glossary Off
Versions: 1 2 3 4 5 6 7 8 9 10 11 12 13 14 15 16 17 18

000
FTUS41 KCLE 261100 AAA
TAFCAK
TAF AMD
KCAK 261100Z 2611/2706 03012KT 4SM -SN OVC035
      TEMPO 2611/2614 1 1/2SM -SN OVC025
     FM261400 03010KT 3SM -SN OVC025
     FM261600 02008KT 1SM -SN BR OVC012
     FM262100 36008KT 4SM -SN BR OVC015
     FM270000 33005KT P6SM OVC025=

USA.gov is the U.S. government's official web portal to all federal, state and local government web resources and services.